sensor_id;sensor_type;location;lat;lon;timestamp;P1;durP1;ratioP1;P2;durP2;ratioP2
4867;SDS011;2448;48.086;10.862;2023-03-19T00:01:40;15.70;;;6.17;;
4867;SDS011;2448;48.086;10.862;2023-03-19T00:04:05;11.00;;;5.07;;
4867;SDS011;2448;48.086;10.862;2023-03-19T00:06:31;13.20;;;5.60;;
4867;SDS011;2448;48.086;10.862;2023-03-19T00:08:56;9.90;;;5.47;;
4867;SDS011;2448;48.086;10.862;2023-03-19T00:11:21;14.17;;;5.83;;
4867;SDS011;2448;48.086;10.862;2023-03-19T00:13:47;10.93;;;6.17;;
4867;SDS011;2448;48.086;10.862;2023-03-19T00:16:12;6.57;;;4.87;;
4867;SDS011;2448;48.086;10.862;2023-03-19T00:18:38;12.10;;;5.73;;
4867;SDS011;2448;48.086;10.862;2023-03-19T00:21:03;6.00;;;4.80;;
4867;SDS011;2448;48.086;10.862;2023-03-19T00:23:28;8.97;;;5.80;;
4867;SDS011;2448;48.086;10.862;2023-03-19T00:25:54;16.17;;;5.23;;
4867;SDS011;2448;48.086;10.862;2023-03-19T00:28:19;9.93;;;5.47;;
4867;SDS011;2448;48.086;10.862;2023-03-19T00:30:45;8.80;;;5.43;;
4867;SDS011;2448;48.086;10.862;2023-03-19T00:33:10;7.47;;;5.23;;
4867;SDS011;2448;48.086;10.862;2023-03-19T00:35:37;8.00;;;5.10;;
4867;SDS011;2448;48.086;10.862;2023-03-19T00:38:03;10.57;;;5.47;;
4867;SDS011;2448;48.086;10.862;2023-03-19T00:40:30;9.50;;;5.30;;
4867;SDS011;2448;48.086;10.862;2023-03-19T00:42:55;8.70;;;5.30;;
4867;SDS011;2448;48.086;10.862;2023-03-19T00:45:21;9.50;;;4.73;;
4867;SDS011;2448;48.086;10.862;2023-03-19T00:47:46;7.20;;;5.47;;
4867;SDS011;2448;48.086;10.862;2023-03-19T00:50:11;8.67;;;5.23;;
4867;SDS011;2448;48.086;10.862;2023-03-19T00:52:37;7.93;;;4.77;;
4867;SDS011;2448;48.086;10.862;2023-03-19T00:55:02;6.53;;;4.73;;
4867;SDS011;2448;48.086;10.862;2023-03-19T00:57:28;8.20;;;4.83;;
4867;SDS011;2448;48.086;10.862;2023-03-19T00:59:53;9.90;;;4.90;;
4867;SDS011;2448;48.086;10.862;2023-03-19T01:02:18;6.17;;;4.17;;
4867;SDS011;2448;48.086;10.862;2023-03-19T01:04:48;11.33;;;4.43;;
4867;SDS011;2448;48.086;10.862;2023-03-19T01:07:13;9.00;;;4.60;;
4867;SDS011;2448;48.086;10.862;2023-03-19T01:09:39;5.97;;;4.80;;
4867;SDS011;2448;48.086;10.862;2023-03-19T01:12:05;9.20;;;4.70;;
4867;SDS011;2448;48.086;10.862;2023-03-19T01:14:31;5.60;;;4.37;;
4867;SDS011;2448;48.086;10.862;2023-03-19T01:16:56;6.63;;;4.47;;
4867;SDS011;2448;48.086;10.862;2023-03-19T01:19:22;10.23;;;4.77;;
4867;SDS011;2448;48.086;10.862;2023-03-19T01:21:48;4.70;;;4.03;;
4867;SDS011;2448;48.086;10.862;2023-03-19T01:24:17;6.90;;;4.00;;
4867;SDS011;2448;48.086;10.862;2023-03-19T01:26:45;8.27;;;4.80;;
4867;SDS011;2448;48.086;10.862;2023-03-19T01:29:17;5.73;;;3.77;;
4867;SDS011;2448;48.086;10.862;2023-03-19T01:31:43;10.90;;;4.47;;
4867;SDS011;2448;48.086;10.862;2023-03-19T01:34:29;5.60;;;4.37;;
4867;SDS011;2448;48.086;10.862;2023-03-19T01:37:00;5.47;;;4.00;;
4867;SDS011;2448;48.086;10.862;2023-03-19T01:39:30;6.53;;;3.70;;
4867;SDS011;2448;48.086;10.862;2023-03-19T01:41:59;9.77;;;4.60;;
4867;SDS011;2448;48.086;10.862;2023-03-19T01:44:33;5.33;;;4.40;;
4867;SDS011;2448;48.086;10.862;2023-03-19T01:50:33;7.87;;;4.70;;
4867;SDS011;2448;48.086;10.862;2023-03-19T01:53:33;4.43;;;3.10;;
4867;SDS011;2448;48.086;10.862;2023-03-19T01:56:26;8.07;;;3.90;;
4867;SDS011;2448;48.086;10.862;2023-03-19T01:58:59;4.17;;;3.60;;
4867;SDS011;2448;48.086;10.862;2023-03-19T02:02:02;5.00;;;3.70;;
4867;SDS011;2448;48.086;10.862;2023-03-19T02:04:29;5.90;;;4.10;;
4867;SDS011;2448;48.086;10.862;2023-03-19T02:06:55;5.70;;;4.07;;
4867;SDS011;2448;48.086;10.862;2023-03-19T02:09:22;6.57;;;3.40;;
4867;SDS011;2448;48.086;10.862;2023-03-19T02:11:48;5.10;;;3.63;;
4867;SDS011;2448;48.086;10.862;2023-03-19T02:14:14;5.70;;;4.43;;
4867;SDS011;2448;48.086;10.862;2023-03-19T02:16:40;4.20;;;3.60;;
4867;SDS011;2448;48.086;10.862;2023-03-19T02:19:05;4.27;;;3.77;;
4867;SDS011;2448;48.086;10.862;2023-03-19T02:21:33;7.53;;;3.70;;
4867;SDS011;2448;48.086;10.862;2023-03-19T02:24:05;8.70;;;4.63;;
4867;SDS011;2448;48.086;10.862;2023-03-19T02:26:55;5.13;;;3.73;;
4867;SDS011;2448;48.086;10.862;2023-03-19T02:29:21;6.17;;;3.70;;
4867;SDS011;2448;48.086;10.862;2023-03-19T02:31:47;3.77;;;3.43;;
4867;SDS011;2448;48.086;10.862;2023-03-19T02:36:39;8.07;;;3.67;;
4867;SDS011;2448;48.086;10.862;2023-03-19T02:39:07;5.13;;;4.00;;
4867;SDS011;2448;48.086;10.862;2023-03-19T02:41:35;3.80;;;3.50;;
4867;SDS011;2448;48.086;10.862;2023-03-19T02:44:01;5.07;;;3.17;;
4867;SDS011;2448;48.086;10.862;2023-03-19T02:46:27;5.03;;;3.83;;
4867;SDS011;2448;48.086;10.862;2023-03-19T02:48:53;7.43;;;4.27;;
4867;SDS011;2448;48.086;10.862;2023-03-19T02:51:18;3.43;;;2.97;;
4867;SDS011;2448;48.086;10.862;2023-03-19T02:53:44;5.10;;;3.70;;
4867;SDS011;2448;48.086;10.862;2023-03-19T02:56:10;7.50;;;3.67;;
4867;SDS011;2448;48.086;10.862;2023-03-19T02:58:35;11.43;;;3.83;;
4867;SDS011;2448;48.086;10.862;2023-03-19T03:01:00;5.63;;;3.60;;
4867;SDS011;2448;48.086;10.862;2023-03-19T03:03:26;6.43;;;3.50;;
4867;SDS011;2448;48.086;10.862;2023-03-19T03:05:51;7.93;;;4.37;;
4867;SDS011;2448;48.086;10.862;2023-03-19T03:08:17;2.87;;;2.67;;
4867;SDS011;2448;48.086;10.862;2023-03-19T03:10:43;6.07;;;3.23;;
4867;SDS011;2448;48.086;10.862;2023-03-19T03:13:08;10.20;;;3.27;;
4867;SDS011;2448;48.086;10.862;2023-03-19T03:15:34;6.33;;;3.40;;
4867;SDS011;2448;48.086;10.862;2023-03-19T03:17:59;5.70;;;3.67;;
4867;SDS011;2448;48.086;10.862;2023-03-19T03:20:25;3.70;;;3.40;;
4867;SDS011;2448;48.086;10.862;2023-03-19T03:22:51;4.23;;;3.40;;
4867;SDS011;2448;48.086;10.862;2023-03-19T03:25:17;4.03;;;3.50;;
4867;SDS011;2448;48.086;10.862;2023-03-19T03:27:43;3.53;;;3.23;;
4867;SDS011;2448;48.086;10.862;2023-03-19T03:30:10;7.40;;;3.87;;
4867;SDS011;2448;48.086;10.862;2023-03-19T03:32:36;3.97;;;3.50;;
4867;SDS011;2448;48.086;10.862;2023-03-19T03:35:02;3.90;;;3.53;;
4867;SDS011;2448;48.086;10.862;2023-03-19T03:37:28;3.57;;;3.13;;
4867;SDS011;2448;48.086;10.862;2023-03-19T03:39:53;4.40;;;3.60;;
4867;SDS011;2448;48.086;10.862;2023-03-19T03:42:19;6.93;;;3.37;;
4867;SDS011;2448;48.086;10.862;2023-03-19T03:44:45;3.07;;;2.83;;
4867;SDS011;2448;48.086;10.862;2023-03-19T03:47:11;7.07;;;2.93;;
4867;SDS011;2448;48.086;10.862;2023-03-19T03:49:37;3.33;;;3.03;;
4867;SDS011;2448;48.086;10.862;2023-03-19T03:52:02;3.53;;;3.23;;
4867;SDS011;2448;48.086;10.862;2023-03-19T03:54:28;3.97;;;3.10;;
4867;SDS011;2448;48.086;10.862;2023-03-19T03:56:53;6.30;;;3.47;;
4867;SDS011;2448;48.086;10.862;2023-03-19T03:59:19;5.13;;;3.80;;
4867;SDS011;2448;48.086;10.862;2023-03-19T04:01:44;3.40;;;3.10;;
4867;SDS011;2448;48.086;10.862;2023-03-19T04:04:10;6.10;;;3.67;;
4867;SDS011;2448;48.086;10.862;2023-03-19T04:06:35;4.30;;;3.50;;
4867;SDS011;2448;48.086;10.862;2023-03-19T04:09:11;4.13;;;3.73;;
4867;SDS011;2448;48.086;10.862;2023-03-19T04:11:37;7.90;;;3.20;;
4867;SDS011;2448;48.086;10.862;2023-03-19T04:14:03;2.90;;;2.60;;
4867;SDS011;2448;48.086;10.862;2023-03-19T04:16:31;3.50;;;3.20;;
4867;SDS011;2448;48.086;10.862;2023-03-19T04:18:57;3.10;;;2.80;;
4867;SDS011;2448;48.086;10.862;2023-03-19T04:21:23;2.50;;;2.40;;
4867;SDS011;2448;48.086;10.862;2023-03-19T04:23:48;5.53;;;3.47;;
4867;SDS011;2448;48.086;10.862;2023-03-19T04:26:14;5.93;;;3.77;;
4867;SDS011;2448;48.086;10.862;2023-03-19T04:28:40;7.13;;;4.00;;
4867;SDS011;2448;48.086;10.862;2023-03-19T04:31:05;3.30;;;3.00;;
4867;SDS011;2448;48.086;10.862;2023-03-19T04:33:32;7.30;;;3.10;;
4867;SDS011;2448;48.086;10.862;2023-03-19T04:35:58;5.87;;;3.73;;
4867;SDS011;2448;48.086;10.862;2023-03-19T04:38:24;3.70;;;3.30;;
4867;SDS011;2448;48.086;10.862;2023-03-19T04:40:53;3.23;;;2.93;;
4867;SDS011;2448;48.086;10.862;2023-03-19T04:43:20;10.83;;;3.53;;
4867;SDS011;2448;48.086;10.862;2023-03-19T04:45:46;4.30;;;3.50;;
4867;SDS011;2448;48.086;10.862;2023-03-19T04:48:11;8.00;;;4.07;;
4867;SDS011;2448;48.086;10.862;2023-03-19T04:50:37;5.40;;;3.80;;
4867;SDS011;2448;48.086;10.862;2023-03-19T04:53:04;8.10;;;3.70;;
4867;SDS011;2448;48.086;10.862;2023-03-19T04:55:30;3.47;;;3.07;;
4867;SDS011;2448;48.086;10.862;2023-03-19T04:58:02;3.17;;;2.87;;
4867;SDS011;2448;48.086;10.862;2023-03-19T05:00:30;5.53;;;3.47;;
4867;SDS011;2448;48.086;10.862;2023-03-19T05:02:57;6.80;;;3.77;;
4867;SDS011;2448;48.086;10.862;2023-03-19T05:05:22;8.53;;;3.80;;
4867;SDS011;2448;48.086;10.862;2023-03-19T05:07:48;2.83;;;2.73;;
4867;SDS011;2448;48.086;10.862;2023-03-19T05:10:14;4.33;;;3.90;;
4867;SDS011;2448;48.086;10.862;2023-03-19T05:12:40;4.77;;;3.50;;
4867;SDS011;2448;48.086;10.862;2023-03-19T05:15:06;13.23;;;3.90;;
4867;SDS011;2448;48.086;10.862;2023-03-19T05:17:35;3.73;;;3.20;;
4867;SDS011;2448;48.086;10.862;2023-03-19T05:20:10;4.53;;;3.20;;
4867;SDS011;2448;48.086;10.862;2023-03-19T05:22:41;4.67;;;3.17;;
4867;SDS011;2448;48.086;10.862;2023-03-19T05:25:06;3.53;;;2.83;;
4867;SDS011;2448;48.086;10.862;2023-03-19T05:27:32;13.17;;;3.07;;
4867;SDS011;2448;48.086;10.862;2023-03-19T05:30:04;3.40;;;3.20;;
4867;SDS011;2448;48.086;10.862;2023-03-19T05:32:48;3.43;;;2.83;;
4867;SDS011;2448;48.086;10.862;2023-03-19T05:35:25;2.90;;;2.60;;
4867;SDS011;2448;48.086;10.862;2023-03-19T05:37:52;3.50;;;2.70;;
4867;SDS011;2448;48.086;10.862;2023-03-19T05:40:18;6.77;;;2.60;;
4867;SDS011;2448;48.086;10.862;2023-03-19T05:42:46;3.53;;;3.10;;
4867;SDS011;2448;48.086;10.862;2023-03-19T05:45:14;3.73;;;2.57;;
4867;SDS011;2448;48.086;10.862;2023-03-19T05:47:48;5.73;;;3.57;;
4867;SDS011;2448;48.086;10.862;2023-03-19T05:50:16;2.83;;;2.63;;
4867;SDS011;2448;48.086;10.862;2023-03-19T05:52:54;6.27;;;3.10;;
4867;SDS011;2448;48.086;10.862;2023-03-19T05:55:20;2.90;;;2.60;;
4867;SDS011;2448;48.086;10.862;2023-03-19T05:57:50;3.80;;;2.83;;
4867;SDS011;2448;48.086;10.862;2023-03-19T06:00:19;4.50;;;2.60;;
4867;SDS011;2448;48.086;10.862;2023-03-19T06:02:45;2.57;;;2.47;;
4867;SDS011;2448;48.086;10.862;2023-03-19T06:05:23;3.77;;;2.90;;
4867;SDS011;2448;48.086;10.862;2023-03-19T06:07:51;4.10;;;3.67;;
4867;SDS011;2448;48.086;10.862;2023-03-19T06:10:33;3.27;;;2.83;;
4867;SDS011;2448;48.086;10.862;2023-03-19T06:13:00;8.93;;;3.47;;
4867;SDS011;2448;48.086;10.862;2023-03-19T06:15:46;3.00;;;2.70;;
4867;SDS011;2448;48.086;10.862;2023-03-19T06:18:18;3.10;;;2.80;;
4867;SDS011;2448;48.086;10.862;2023-03-19T06:20:45;3.60;;;3.30;;
4867;SDS011;2448;48.086;10.862;2023-03-19T06:23:11;2.80;;;2.60;;
4867;SDS011;2448;48.086;10.862;2023-03-19T06:25:37;3.87;;;3.47;;
4867;SDS011;2448;48.086;10.862;2023-03-19T06:28:03;4.47;;;3.43;;
4867;SDS011;2448;48.086;10.862;2023-03-19T06:30:34;6.73;;;3.10;;
4867;SDS011;2448;48.086;10.862;2023-03-19T06:33:02;2.53;;;2.43;;
4867;SDS011;2448;48.086;10.862;2023-03-19T06:35:30;3.80;;;3.10;;
4867;SDS011;2448;48.086;10.862;2023-03-19T06:37:56;2.90;;;2.70;;
4867;SDS011;2448;48.086;10.862;2023-03-19T06:40:21;3.73;;;2.80;;
4867;SDS011;2448;48.086;10.862;2023-03-19T06:42:47;2.80;;;2.60;;
4867;SDS011;2448;48.086;10.862;2023-03-19T06:45:14;4.10;;;3.30;;
4867;SDS011;2448;48.086;10.862;2023-03-19T06:47:46;6.80;;;3.10;;
4867;SDS011;2448;48.086;10.862;2023-03-19T06:50:12;17.50;;;3.43;;
4867;SDS011;2448;48.086;10.862;2023-03-19T06:52:38;5.87;;;3.10;;
4867;SDS011;2448;48.086;10.862;2023-03-19T06:55:04;2.80;;;2.60;;
4867;SDS011;2448;48.086;10.862;2023-03-19T06:57:30;3.17;;;2.87;;
4867;SDS011;2448;48.086;10.862;2023-03-19T06:59:55;6.73;;;4.90;;
4867;SDS011;2448;48.086;10.862;2023-03-19T07:02:21;6.10;;;4.90;;
4867;SDS011;2448;48.086;10.862;2023-03-19T07:04:47;5.60;;;3.63;;
4867;SDS011;2448;48.086;10.862;2023-03-19T07:07:12;3.10;;;2.90;;
4867;SDS011;2448;48.086;10.862;2023-03-19T07:09:38;5.90;;;3.73;;
4867;SDS011;2448;48.086;10.862;2023-03-19T07:12:03;7.70;;;4.17;;
4867;SDS011;2448;48.086;10.862;2023-03-19T07:14:28;4.67;;;4.20;;
4867;SDS011;2448;48.086;10.862;2023-03-19T07:16:54;5.57;;;4.10;;
4867;SDS011;2448;48.086;10.862;2023-03-19T07:19:20;6.37;;;5.63;;
4867;SDS011;2448;48.086;10.862;2023-03-19T07:21:45;7.73;;;5.53;;
4867;SDS011;2448;48.086;10.862;2023-03-19T07:24:10;11.33;;;6.63;;
4867;SDS011;2448;48.086;10.862;2023-03-19T07:26:36;4.87;;;4.30;;
4867;SDS011;2448;48.086;10.862;2023-03-19T07:29:01;4.17;;;3.77;;
4867;SDS011;2448;48.086;10.862;2023-03-19T07:31:27;5.60;;;3.57;;
4867;SDS011;2448;48.086;10.862;2023-03-19T07:33:52;6.10;;;4.00;;
4867;SDS011;2448;48.086;10.862;2023-03-19T07:36:18;6.93;;;4.00;;
4867;SDS011;2448;48.086;10.862;2023-03-19T07:38:43;5.50;;;3.57;;
4867;SDS011;2448;48.086;10.862;2023-03-19T07:41:08;4.60;;;3.37;;
4867;SDS011;2448;48.086;10.862;2023-03-19T07:43:34;8.30;;;4.47;;
4867;SDS011;2448;48.086;10.862;2023-03-19T07:46:00;4.80;;;4.00;;
4867;SDS011;2448;48.086;10.862;2023-03-19T07:48:26;5.83;;;4.00;;
4867;SDS011;2448;48.086;10.862;2023-03-19T07:50:51;3.77;;;3.47;;
4867;SDS011;2448;48.086;10.862;2023-03-19T07:53:17;3.80;;;3.47;;
4867;SDS011;2448;48.086;10.862;2023-03-19T07:55:42;5.20;;;3.30;;
4867;SDS011;2448;48.086;10.862;2023-03-19T07:58:08;5.37;;;3.83;;
4867;SDS011;2448;48.086;10.862;2023-03-19T08:00:33;5.50;;;4.53;;
4867;SDS011;2448;48.086;10.862;2023-03-19T08:02:59;3.73;;;3.43;;
4867;SDS011;2448;48.086;10.862;2023-03-19T08:05:24;6.77;;;3.77;;
4867;SDS011;2448;48.086;10.862;2023-03-19T08:07:49;4.10;;;3.40;;
4867;SDS011;2448;48.086;10.862;2023-03-19T08:10:15;29.73;;;3.30;;
4867;SDS011;2448;48.086;10.862;2023-03-19T08:12:41;4.30;;;2.93;;
4867;SDS011;2448;48.086;10.862;2023-03-19T08:15:07;4.83;;;2.87;;
4867;SDS011;2448;48.086;10.862;2023-03-19T08:17:33;4.20;;;3.77;;
4867;SDS011;2448;48.086;10.862;2023-03-19T08:20:05;3.53;;;3.23;;
4867;SDS011;2448;48.086;10.862;2023-03-19T08:22:33;5.03;;;3.77;;
4867;SDS011;2448;48.086;10.862;2023-03-19T08:24:58;4.37;;;3.47;;
4867;SDS011;2448;48.086;10.862;2023-03-19T08:27:24;8.23;;;3.33;;
4867;SDS011;2448;48.086;10.862;2023-03-19T08:29:49;3.07;;;2.83;;
4867;SDS011;2448;48.086;10.862;2023-03-19T08:32:14;5.00;;;3.33;;
4867;SDS011;2448;48.086;10.862;2023-03-19T08:34:40;4.90;;;3.67;;
4867;SDS011;2448;48.086;10.862;2023-03-19T08:37:05;3.23;;;2.97;;
4867;SDS011;2448;48.086;10.862;2023-03-19T08:39:31;9.10;;;3.63;;
4867;SDS011;2448;48.086;10.862;2023-03-19T08:41:56;4.10;;;3.80;;
4867;SDS011;2448;48.086;10.862;2023-03-19T08:44:22;5.47;;;3.37;;
4867;SDS011;2448;48.086;10.862;2023-03-19T08:46:47;7.30;;;3.37;;
4867;SDS011;2448;48.086;10.862;2023-03-19T08:49:12;4.47;;;4.03;;
4867;SDS011;2448;48.086;10.862;2023-03-19T08:51:38;9.53;;;4.53;;
4867;SDS011;2448;48.086;10.862;2023-03-19T08:54:04;8.63;;;4.33;;
4867;SDS011;2448;48.086;10.862;2023-03-19T08:56:29;6.07;;;4.00;;
4867;SDS011;2448;48.086;10.862;2023-03-19T08:58:55;6.30;;;3.80;;
4867;SDS011;2448;48.086;10.862;2023-03-19T09:01:21;4.47;;;3.90;;
4867;SDS011;2448;48.086;10.862;2023-03-19T09:03:46;5.00;;;3.60;;
4867;SDS011;2448;48.086;10.862;2023-03-19T09:06:12;4.13;;;3.73;;
4867;SDS011;2448;48.086;10.862;2023-03-19T09:08:38;9.27;;;3.80;;
4867;SDS011;2448;48.086;10.862;2023-03-19T09:11:04;7.37;;;4.03;;
4867;SDS011;2448;48.086;10.862;2023-03-19T09:13:30;3.97;;;3.57;;
4867;SDS011;2448;48.086;10.862;2023-03-19T09:15:55;4.53;;;3.70;;
4867;SDS011;2448;48.086;10.862;2023-03-19T09:18:21;3.93;;;3.47;;
4867;SDS011;2448;48.086;10.862;2023-03-19T09:20:49;3.67;;;3.07;;
4867;SDS011;2448;48.086;10.862;2023-03-19T09:23:15;9.60;;;3.70;;
4867;SDS011;2448;48.086;10.862;2023-03-19T09:25:40;4.80;;;3.90;;
4867;SDS011;2448;48.086;10.862;2023-03-19T09:28:06;10.93;;;4.47;;
4867;SDS011;2448;48.086;10.862;2023-03-19T09:30:31;5.47;;;3.13;;
4867;SDS011;2448;48.086;10.862;2023-03-19T09:32:56;3.93;;;3.50;;
4867;SDS011;2448;48.086;10.862;2023-03-19T09:35:22;3.20;;;3.00;;
4867;SDS011;2448;48.086;10.862;2023-03-19T09:37:48;6.10;;;3.20;;
4867;SDS011;2448;48.086;10.862;2023-03-19T09:40:20;4.53;;;4.13;;
4867;SDS011;2448;48.086;10.862;2023-03-19T09:45:16;4.90;;;3.53;;
4867;SDS011;2448;48.086;10.862;2023-03-19T09:47:42;3.07;;;2.87;;
4867;SDS011;2448;48.086;10.862;2023-03-19T09:50:12;3.20;;;2.90;;
4867;SDS011;2448;48.086;10.862;2023-03-19T09:52:48;3.83;;;2.50;;
4867;SDS011;2448;48.086;10.862;2023-03-19T09:57:43;3.60;;;3.00;;
4867;SDS011;2448;48.086;10.862;2023-03-19T10:00:17;3.00;;;2.80;;
4867;SDS011;2448;48.086;10.862;2023-03-19T10:02:43;3.80;;;2.67;;
4867;SDS011;2448;48.086;10.862;2023-03-19T10:05:24;2.50;;;2.30;;
4867;SDS011;2448;48.086;10.862;2023-03-19T10:08:04;3.50;;;2.73;;
4867;SDS011;2448;48.086;10.862;2023-03-19T10:10:41;3.73;;;2.83;;
4867;SDS011;2448;48.086;10.862;2023-03-19T10:15:49;2.90;;;2.70;;
4867;SDS011;2448;48.086;10.862;2023-03-19T10:18:24;3.67;;;2.97;;
4867;SDS011;2448;48.086;10.862;2023-03-19T10:25:43;2.47;;;2.27;;
4867;SDS011;2448;48.086;10.862;2023-03-19T10:28:16;2.80;;;2.60;;
4867;SDS011;2448;48.086;10.862;2023-03-19T10:30:54;2.47;;;2.30;;
4867;SDS011;2448;48.086;10.862;2023-03-19T10:33:22;3.23;;;2.40;;
4867;SDS011;2448;48.086;10.862;2023-03-19T10:35:49;3.70;;;3.00;;
4867;SDS011;2448;48.086;10.862;2023-03-19T10:38:20;3.93;;;2.60;;
4867;SDS011;2448;48.086;10.862;2023-03-19T10:43:31;2.60;;;2.40;;
4867;SDS011;2448;48.086;10.862;2023-03-19T10:45:59;4.30;;;3.20;;
4867;SDS011;2448;48.086;10.862;2023-03-19T10:48:24;10.67;;;2.90;;
4867;SDS011;2448;48.086;10.862;2023-03-19T10:50:52;4.50;;;2.97;;
4867;SDS011;2448;48.086;10.862;2023-03-19T10:55:43;4.97;;;2.63;;
4867;SDS011;2448;48.086;10.862;2023-03-19T10:58:20;3.00;;;2.80;;
4867;SDS011;2448;48.086;10.862;2023-03-19T11:00:54;6.93;;;2.60;;
4867;SDS011;2448;48.086;10.862;2023-03-19T11:03:34;3.23;;;2.77;;
4867;SDS011;2448;48.086;10.862;2023-03-19T11:08:28;4.47;;;2.60;;
4867;SDS011;2448;48.086;10.862;2023-03-19T11:10:53;5.40;;;3.07;;
4867;SDS011;2448;48.086;10.862;2023-03-19T11:13:23;7.30;;;3.23;;
4867;SDS011;2448;48.086;10.862;2023-03-19T11:15:50;5.47;;;3.50;;
4867;SDS011;2448;48.086;10.862;2023-03-19T11:20:49;2.90;;;2.70;;
4867;SDS011;2448;48.086;10.862;2023-03-19T11:23:18;5.03;;;3.13;;
4867;SDS011;2448;48.086;10.862;2023-03-19T11:25:51;2.90;;;2.70;;
4867;SDS011;2448;48.086;10.862;2023-03-19T11:28:18;5.23;;;3.20;;
4867;SDS011;2448;48.086;10.862;2023-03-19T11:44:18;2.73;;;2.53;;
4867;SDS011;2448;48.086;10.862;2023-03-19T11:47:06;3.43;;;3.10;;
4867;SDS011;2448;48.086;10.862;2023-03-19T12:02:58;4.00;;;2.80;;
4867;SDS011;2448;48.086;10.862;2023-03-19T12:05:32;6.17;;;2.37;;
4867;SDS011;2448;48.086;10.862;2023-03-19T12:08:13;5.97;;;2.90;;
4867;SDS011;2448;48.086;10.862;2023-03-19T12:10:58;2.77;;;2.43;;
4867;SDS011;2448;48.086;10.862;2023-03-19T12:24:11;2.83;;;2.60;;
4867;SDS011;2448;48.086;10.862;2023-03-19T12:27:01;8.30;;;2.73;;
4867;SDS011;2448;48.086;10.862;2023-03-19T12:34:52;3.17;;;2.87;;
4867;SDS011;2448;48.086;10.862;2023-03-19T12:37:28;3.80;;;3.30;;
4867;SDS011;2448;48.086;10.862;2023-03-19T12:42:31;3.10;;;2.80;;
4867;SDS011;2448;48.086;10.862;2023-03-19T12:44:58;2.77;;;2.57;;
4867;SDS011;2448;48.086;10.862;2023-03-19T12:47:30;2.93;;;2.30;;
4867;SDS011;2448;48.086;10.862;2023-03-19T12:50:06;3.80;;;2.77;;
4867;SDS011;2448;48.086;10.862;2023-03-19T12:55:01;2.33;;;2.20;;
4867;SDS011;2448;48.086;10.862;2023-03-19T12:57:48;6.63;;;2.83;;
4867;SDS011;2448;48.086;10.862;2023-03-19T13:00:16;2.90;;;2.70;;
4867;SDS011;2448;48.086;10.862;2023-03-19T13:02:50;4.13;;;2.47;;
4867;SDS011;2448;48.086;10.862;2023-03-19T13:10:24;2.90;;;2.70;;
4867;SDS011;2448;48.086;10.862;2023-03-19T13:12:51;4.37;;;2.80;;
4867;SDS011;2448;48.086;10.862;2023-03-19T13:15:28;3.90;;;2.93;;
4867;SDS011;2448;48.086;10.862;2023-03-19T13:23:16;2.50;;;2.30;;
4867;SDS011;2448;48.086;10.862;2023-03-19T13:25:45;2.43;;;2.23;;
4867;SDS011;2448;48.086;10.862;2023-03-19T13:28:17;2.10;;;2.00;;
4867;SDS011;2448;48.086;10.862;2023-03-19T13:31:01;2.43;;;2.20;;
4867;SDS011;2448;48.086;10.862;2023-03-19T13:33:27;2.50;;;2.30;;
4867;SDS011;2448;48.086;10.862;2023-03-19T13:35:53;3.53;;;2.43;;
4867;SDS011;2448;48.086;10.862;2023-03-19T13:38:21;2.60;;;2.40;;
4867;SDS011;2448;48.086;10.862;2023-03-19T13:43:21;3.77;;;2.93;;
4867;SDS011;2448;48.086;10.862;2023-03-19T13:45:51;2.77;;;2.53;;
4867;SDS011;2448;48.086;10.862;2023-03-19T13:48:32;2.97;;;2.50;;
4867;SDS011;2448;48.086;10.862;2023-03-19T13:51:03;3.13;;;2.83;;
4867;SDS011;2448;48.086;10.862;2023-03-19T13:55:58;3.70;;;2.87;;
4867;SDS011;2448;48.086;10.862;2023-03-19T13:58:25;2.97;;;2.10;;
4867;SDS011;2448;48.086;10.862;2023-03-19T14:01:54;2.63;;;2.43;;
4867;SDS011;2448;48.086;10.862;2023-03-19T14:04:01;2.57;;;2.20;;
4867;SDS011;2448;48.086;10.862;2023-03-19T14:08:53;2.53;;;2.33;;
4867;SDS011;2448;48.086;10.862;2023-03-19T14:11:22;8.03;;;2.20;;
4867;SDS011;2448;48.086;10.862;2023-03-19T14:13:48;2.47;;;2.00;;
4867;SDS011;2448;48.086;10.862;2023-03-19T14:16:20;4.77;;;2.33;;
4867;SDS011;2448;48.086;10.862;2023-03-19T14:18:46;2.47;;;2.27;;
4867;SDS011;2448;48.086;10.862;2023-03-19T14:21:16;2.27;;;2.07;;
4867;SDS011;2448;48.086;10.862;2023-03-19T14:23:50;2.00;;;1.90;;
4867;SDS011;2448;48.086;10.862;2023-03-19T14:26:20;2.57;;;2.10;;
4867;SDS011;2448;48.086;10.862;2023-03-19T14:31:48;2.30;;;2.13;;
4867;SDS011;2448;48.086;10.862;2023-03-19T14:37:02;3.43;;;2.30;;
4867;SDS011;2448;48.086;10.862;2023-03-19T14:39:31;2.57;;;2.37;;
4867;SDS011;2448;48.086;10.862;2023-03-19T14:42:00;2.80;;;2.60;;
4867;SDS011;2448;48.086;10.862;2023-03-19T14:44:44;3.00;;;2.60;;
4867;SDS011;2448;48.086;10.862;2023-03-19T14:47:23;3.60;;;2.40;;
4867;SDS011;2448;48.086;10.862;2023-03-19T14:52:29;4.27;;;2.60;;
4867;SDS011;2448;48.086;10.862;2023-03-19T14:55:06;2.60;;;2.40;;
4867;SDS011;2448;48.086;10.862;2023-03-19T14:57:33;2.43;;;2.23;;
4867;SDS011;2448;48.086;10.862;2023-03-19T14:59:59;2.87;;;2.13;;
4867;SDS011;2448;48.086;10.862;2023-03-19T15:04:59;2.47;;;2.27;;
4867;SDS011;2448;48.086;10.862;2023-03-19T15:07:30;2.30;;;2.20;;
4867;SDS011;2448;48.086;10.862;2023-03-19T15:09:58;7.77;;;2.30;;
4867;SDS011;2448;48.086;10.862;2023-03-19T15:15:09;5.20;;;2.47;;
4867;SDS011;2448;48.086;10.862;2023-03-19T15:17:38;5.67;;;2.53;;
4867;SDS011;2448;48.086;10.862;2023-03-19T15:20:12;4.83;;;2.70;;
4867;SDS011;2448;48.086;10.862;2023-03-19T15:22:39;2.87;;;2.67;;
4867;SDS011;2448;48.086;10.862;2023-03-19T15:25:05;2.70;;;2.50;;
4867;SDS011;2448;48.086;10.862;2023-03-19T15:27:32;3.30;;;2.60;;
4867;SDS011;2448;48.086;10.862;2023-03-19T15:29:57;3.33;;;2.20;;
4867;SDS011;2448;48.086;10.862;2023-03-19T15:32:29;2.30;;;2.13;;
4867;SDS011;2448;48.086;10.862;2023-03-19T15:34:55;3.57;;;2.50;;
4867;SDS011;2448;48.086;10.862;2023-03-19T15:37:20;3.30;;;2.33;;
4867;SDS011;2448;48.086;10.862;2023-03-19T15:39:47;2.33;;;2.23;;
4867;SDS011;2448;48.086;10.862;2023-03-19T15:42:14;3.07;;;2.43;;
4867;SDS011;2448;48.086;10.862;2023-03-19T15:44:45;4.60;;;2.53;;
4867;SDS011;2448;48.086;10.862;2023-03-19T15:47:12;4.17;;;2.77;;
4867;SDS011;2448;48.086;10.862;2023-03-19T15:49:42;4.00;;;2.27;;
4867;SDS011;2448;48.086;10.862;2023-03-19T15:52:10;3.70;;;2.40;;
4867;SDS011;2448;48.086;10.862;2023-03-19T15:54:36;2.80;;;2.60;;
4867;SDS011;2448;48.086;10.862;2023-03-19T15:57:01;2.90;;;2.60;;
4867;SDS011;2448;48.086;10.862;2023-03-19T15:59:27;2.93;;;2.73;;
4867;SDS011;2448;48.086;10.862;2023-03-19T16:01:59;6.23;;;4.10;;
4867;SDS011;2448;48.086;10.862;2023-03-19T16:04:26;7.60;;;4.30;;
4867;SDS011;2448;48.086;10.862;2023-03-19T16:06:53;3.20;;;2.20;;
4867;SDS011;2448;48.086;10.862;2023-03-19T16:09:24;2.90;;;2.70;;
4867;SDS011;2448;48.086;10.862;2023-03-19T16:11:50;13.73;;;7.70;;
4867;SDS011;2448;48.086;10.862;2023-03-19T16:16:43;5.37;;;3.50;;
4867;SDS011;2448;48.086;10.862;2023-03-19T16:21:50;4.93;;;2.50;;
4867;SDS011;2448;48.086;10.862;2023-03-19T16:24:26;5.50;;;2.53;;
4867;SDS011;2448;48.086;10.862;2023-03-19T16:26:55;9.03;;;2.93;;
4867;SDS011;2448;48.086;10.862;2023-03-19T16:31:50;3.00;;;2.60;;
4867;SDS011;2448;48.086;10.862;2023-03-19T16:34:29;4.70;;;2.53;;
4867;SDS011;2448;48.086;10.862;2023-03-19T16:36:55;4.33;;;3.27;;
4867;SDS011;2448;48.086;10.862;2023-03-19T16:44:39;3.00;;;2.80;;
4867;SDS011;2448;48.086;10.862;2023-03-19T16:47:09;3.73;;;2.70;;
4867;SDS011;2448;48.086;10.862;2023-03-19T16:49:35;2.90;;;2.70;;
4867;SDS011;2448;48.086;10.862;2023-03-19T16:52:00;3.83;;;2.70;;
4867;SDS011;2448;48.086;10.862;2023-03-19T16:54:26;5.50;;;3.10;;
4867;SDS011;2448;48.086;10.862;2023-03-19T16:56:51;8.33;;;2.70;;
4867;SDS011;2448;48.086;10.862;2023-03-19T16:59:19;9.93;;;2.60;;
4867;SDS011;2448;48.086;10.862;2023-03-19T17:01:47;3.20;;;2.53;;
4867;SDS011;2448;48.086;10.862;2023-03-19T17:04:13;3.37;;;2.90;;
4867;SDS011;2448;48.086;10.862;2023-03-19T17:06:41;5.10;;;2.60;;
4867;SDS011;2448;48.086;10.862;2023-03-19T17:09:07;3.17;;;2.37;;